Latest Weather Observations for Lancelin (Defence)

IDW60801

Issued at 7:03 am WST Friday 19 August 2022 (issued every 10 minutes, with the page automatically refreshed every 10 minutes)

About weather observations | Map of weather stations | Latest weather observations for WA | Other Formats
Station Details ID: 009280 Name: LANCELIN (DEFENCE) Lat: -30.84 Lon: 115.23 Height: 3.41 m
Data from the previous 72 hours. | See also: Recent months at Lancelin (Defence)
Date/Time
WST
Temp
°C
App
Temp
°C
Dew
Point
°C
Rel
Hum
%
Delta-T
°C
Wind Press
QNH
hPa
Press
MSL
hPa
Rain since
9am
mm
Dir  Spd
km/h
Gust
km/h
Spd
kts
Gust
kts
19/07:00am 11.3 8.7 7.8 79 1.7 NE 11 15 6 8 1029.3 1029.3 0.2
19/06:30am 11.3 8.7 7.8 79 1.7 NE 11 15 6 8 1029.1 1029.1 0.2
19/06:00am 10.6 7.6 7.8 83 1.3 NE 13 15 7 8 1029.0 1029.0 0.2
19/05:30am 10.2 7.2 7.8 85 1.2 NE 13 17 7 9 1028.8 1028.8 0.2
19/05:00am 9.8 6.8 7.7 87 1.0 NE 13 15 7 8 1028.5 1028.5 0.2
19/04:30am 9.5 6.4 7.4 87 1.0 NE 13 17 7 9 1028.3 1028.3 0.2
19/04:00am 9.7 6.7 7.5 86 1.0 NE 13 15 7 8 1028.3 1028.3 0.2
19/03:30am 9.4 6.4 7.5 88 0.9 NE 13 19 7 10 1028.2 1028.2 0.2
19/03:00am 9.2 6.1 7.3 88 0.9 NE 13 17 7 9 1028.3 1028.3 0.2
19/02:30am 10.1 7.1 7.7 85 1.2 NE 13 17 7 9 1028.3 1028.3 0.2
19/02:00am 10.6 7.2 7.8 83 1.3 NE 15 17 8 9 1028.4 1028.4 0.2
19/01:30am 10.7 7.7 7.8 82 1.4 NE 13 17 7 9 1028.5 1028.5 0.2
19/01:00am 11.1 8.2 8.3 83 1.4 NE 13 15 7 8 1028.5 1028.5 0.2
19/12:30am 10.7 8.2 8.1 84 1.3 NE 11 15 6 8 1028.7 1028.7 0.2
19/12:00am 10.9 8.1 8.7 86 1.1 NE 13 17 7 9 1028.9 1028.9 0.2
 
Date/Time
WST
Temp
°C
App
Temp
°C
Dew
Point
°C
Rel
Hum
%
Delta-T
°C
Wind Press
QNH
hPa
Press
MSL
hPa
Rain since
9am
mm
Dir  Spd
km/h
Gust
km/h
Spd
kts
Gust
kts
18/11:30pm 10.0 7.2 8.4 90 0.8 NE 13 15 7 8 1028.9 1028.9 0.2
18/11:00pm 9.3 6.8 8.4 94 0.4 NE 11 15 6 8 1029.1 1029.1 0.2
18/10:30pm 8.2 6.2 7.0 92 0.6 NE 7 9 4 5 1029.1 1029.1 0.2
18/10:00pm 9.2 7.6 8.0 92 0.6 ENE 6 7 3 4 1029.2 1029.2 0.2
18/09:30pm 9.5 7.9 7.8 89 0.8 ENE 6 7 3 4 1029.0 1029.0 0.2
18/09:00pm 9.6 7.9 7.5 87 1.0 ENE 6 7 3 4 1029.0 1029.0 0.2
18/08:30pm 9.7 8.7 7.3 85 1.1 E 2 4 1 2 1029.0 1029.0 0.2
18/08:00pm 10.3 8.6 7.4 82 1.4 ESE 6 7 3 4 1028.9 1028.9 0.2
18/07:30pm 10.7 9.3 7.2 79 1.7 SE 4 6 2 3 1029.0 1029.0 0.2
18/07:00pm 11.9 10.5 7.4 74 2.2 ESE 4 6 2 3 1028.4 1028.4 0.2
18/06:30pm 14.8 13.1 8.5 66 3.2 SSW 7 13 4 7 1028.0 1028.0 0.0
18/06:00pm 15.1 13.4 8.3 64 3.4 S 7 11 4 6 1027.9 1027.9 0.0
18/05:30pm 15.9 14.2 8.4 61 3.8 SSW 7 11 4 6 1027.8 1027.8 0.0
18/05:00pm 16.3 13.7 7.8 57 4.2 SSW 11 15 6 8 1027.6 1027.6 0.0
18/04:30pm 16.6 13.6 7.8 56 4.4 SSW 13 17 7 9 1027.3 1027.3 0.0
18/04:00pm 16.9 14.0 8.3 57 4.4 SSW 13 17 7 9 1027.3 1027.3 0.0
18/03:30pm 17.1 14.2 8.0 55 4.6 SSW 13 17 7 9 1027.3 1027.3 0.0
18/03:00pm 16.9 13.7 6.7 51 5.0 SSW 13 19 7 10 1027.4 1027.4 0.0
18/02:30pm 17.3 14.2 7.4 52 5.0 SSW 13 17 7 9 1027.2 1027.2 0.0
18/02:00pm 17.6 14.8 6.8 49 5.3 SSW 11 17 6 9 1027.2 1027.2 0.0
18/01:30pm 17.6 15.1 6.5 48 5.5 SW 9 13 5 7 1027.3 1027.3 0.0
18/01:00pm 17.6 15.3 5.9 46 5.7 SSW 7 13 4 7 1027.5 1027.5 0.0
18/12:30pm 18.1 16.0 6.0 45 5.9 ENE 6 13 3 7 1027.6 1027.6 0.0
18/12:00pm 17.6 14.9 5.5 45 5.8 ENE 9 17 5 9 1027.9 1027.9 0.0
18/11:30am 17.0 13.0 4.7 44 5.8 NE 15 20 8 11 1028.0 1028.0 0.0
18/11:00am 16.5 12.8 6.3 51 4.9 NE 15 24 8 13 1028.1 1028.1 0.0
18/10:30am 15.3 11.3 6.6 56 4.2 NE 17 22 9 12 1028.3 1028.3 0.0
18/10:00am 14.0 10.7 8.2 68 2.9 NE 15 22 8 12 1028.3 1028.3 0.0
18/09:30am 12.9 9.9 7.6 70 2.6 NE 13 22 7 12 1028.2 1028.2 0.0
18/09:00am 12.1 9.0 7.4 73 2.3 NE 13 19 7 10 1027.9 1027.9 5.6
18/08:30am 10.2 7.0 6.7 79 1.6 NE 13 19 7 10 1027.7 1027.7 5.6
18/08:00am 8.7 5.0 6.3 85 1.1 NE 15 24 8 13 1027.3 1027.3 5.6
18/07:30am 8.0 4.7 6.3 89 0.8 NE 13 19 7 10 1026.6 1026.6 5.6
18/07:00am 7.2 3.8 5.7 90 0.7 NE 13 19 7 10 1026.3 1026.3 5.6
18/06:30am 7.5 4.1 5.8 89 0.8 ENE 13 19 7 10 1025.8 1025.8 5.6
18/06:00am 7.5 4.1 6.1 91 0.6 ENE 13 19 7 10 1025.5 1025.5 5.6
18/05:30am 7.3 4.4 6.6 95 0.3 NE 11 17 6 9 1025.1 1025.1 5.6
18/05:00am 7.2 4.4 7.1 99 0.0 ENE 11 17 6 9 1024.8 1024.8 5.6
18/04:30am 7.3 5.3 7.0 98 0.1 ENE 7 13 4 7 1024.8 1024.8 5.6
18/04:00am 7.4 5.4 7.0 97 0.2 ENE 7 13 4 7 1024.2 1024.2 5.6
18/03:30am 7.4 4.9 6.7 95 0.3 E 9 13 5 7 1023.9 1023.9 5.6
18/03:00am 7.5 5.3 6.4 93 0.5 E 7 13 4 7 1023.6 1023.6 5.6
18/02:30am 8.2 5.3 6.5 89 0.8 E 11 17 6 9 1023.5 1023.5 5.6
18/02:00am 8.1 5.1 6.2 88 0.9 E 11 15 6 8 1023.4 1023.4 5.6
18/01:30am 8.6 5.7 6.4 86 1.0 E 11 15 6 8 1023.2 1023.2 5.6
18/01:00am 8.4 5.4 6.0 85 1.1 E 11 15 6 8 1023.0 1023.0 5.6
18/12:30am 8.5 5.5 5.8 83 1.2 E 11 15 6 8 1022.6 1022.6 5.6
18/12:00am 8.9 5.2 6.2 83 1.2 ESE 15 20 8 11 1022.6 1022.6 5.6
 
Date/Time
WST
Temp
°C
App
Temp
°C
Dew
Point
°C
Rel
Hum
%
Delta-T
°C
Wind Press
QNH
hPa
Press
MSL
hPa
Rain since
9am
mm
Dir  Spd
km/h
Gust
km/h
Spd
kts
Gust
kts
17/11:30pm 8.6 5.3 6.4 86 1.0 ESE 13 19 7 10 1022.4 1022.4 5.6
17/11:00pm 8.3 5.8 6.4 88 0.9 ESE 9 13 5 7 1022.1 1022.1 5.6
17/10:30pm 8.9 6.1 6.9 87 0.9 ESE 11 13 6 7 1021.6 1021.6 5.6
17/10:00pm 9.7 6.7 7.5 86 1.0 ESE 13 19 7 10 1021.1 1021.1 5.6
17/09:30pm 10.6 8.0 9.4 92 0.6 ESE 13 22 7 12 1020.5 1020.5 5.6
17/09:00pm 12.8 6.5 8.9 77 2.0 S 32 57 17 31 1019.6 1019.6 5.6
17/08:59pm 13.1 7.2 9.0 76 2.1 S 30 57 16 31 1019.5 1019.5 5.6
17/08:56pm 14.1 8.8 9.7 75 2.3 S 28 57 15 31 1019.5 1019.5 5.6
17/08:30pm 14.5 9.5 8.0 65 3.2 SSW 24 35 13 19 1018.8 1018.8 5.6
17/08:00pm 14.4 10.3 8.8 69 2.8 SW 20 28 11 15 1018.2 1018.2 5.6
17/07:30pm 14.3 9.7 8.3 67 3.0 SW 22 32 12 17 1017.5 1017.5 5.6
17/07:00pm 14.2 9.0 9.0 71 2.6 WSW 26 43 14 23 1016.9 1016.9 5.6
17/06:30pm 14.1 7.8 7.4 64 3.3 WSW 30 41 16 22 1016.3 1016.3 5.6
17/06:00pm 13.6 9.0 9.6 77 2.0 WSW 24 37 13 20 1015.8 1015.8 5.6
17/05:39pm 13.9 8.5 9.5 75 2.3 SW 28 50 15 27 1015.6 1015.6 5.6
17/05:30pm 12.9 9.3 10.6 86 1.2 WSW 20 32 11 17 1015.1 1015.1 5.4
17/05:00pm 14.2 8.6 8.6 69 2.8 WSW 28 41 15 22 1014.6 1014.6 5.0
17/04:44pm 14.3 8.0 9.1 71 2.6 WSW 32 54 17 29 1014.9 1014.9 5.0
17/04:30pm 13.9 7.5 8.7 71 2.6 WSW 32 46 17 25 1014.5 1014.5 5.0
17/04:00pm 12.9 6.0 10.4 85 1.3 SW 37 59 20 32 1014.0 1014.0 5.0
17/03:30pm 14.4 6.9 9.4 72 2.6 WSW 39 57 21 31 1013.5 1013.5 5.0
17/03:11pm 15.0 6.9 10.6 75 2.3 W 44 63 24 34 1013.1 1013.1 5.0
17/03:00pm 14.7 6.6 10.7 77 2.1 W 44 63 24 34 1012.7 1012.7 5.0
17/02:30pm 15.4 7.9 11.0 75 2.3 W 41 61 22 33 1012.0 1012.0 5.0
17/02:00pm 13.8 7.6 11.5 86 1.2 W 35 72 19 39 1012.1 1012.1 4.8
17/01:58pm 15.3 9.8 11.9 80 1.8 W 32 65 17 35 1011.7 1011.7 3.6
17/01:30pm 13.9 8.4 12.6 92 0.7 W 33 48 18 26 1011.8 1011.8 3.6
17/01:14pm 14.4 9.1 11.2 81 1.7 WNW 30 57 16 31 1012.4 1012.4 3.2
17/01:00pm 13.7 7.2 10.5 81 1.7 W 35 61 19 33 1011.5 1011.5 2.4
17/12:58pm 13.2 6.4 9.1 76 2.1 W 35 61 19 33 1011.8 1011.8 2.4
17/12:52pm 15.6 10.8 10.2 70 2.8 W 26 61 14 33 1012.3 1012.3 1.6
17/12:30pm 18.0 13.1 10.1 60 4.2 WNW 26 37 14 20 1012.1 1012.1 1.4
17/12:00pm 17.6 12.0 10.2 62 3.9 WNW 30 43 16 23 1012.6 1012.6 1.4
17/11:40am 16.4 10.6 10.9 70 2.9 WNW 32 52 17 28 1012.8 1012.8 1.4
17/11:30am 16.8 12.0 10.2 65 3.5 WNW 26 41 14 22 1012.6 1012.6 1.4
17/11:00am 16.1 12.2 12.1 77 2.2 WNW 24 35 13 19 1013.2 1013.2 1.4
17/10:30am 15.5 12.5 12.6 83 1.6 WNW 20 30 11 16 1013.4 1013.4 1.0
17/10:00am 13.8 7.9 11.1 84 1.4 W 33 44 18 24 1013.7 1013.7 0.6
17/09:47am 15.7 9.7 10.2 70 2.9 W 32 52 17 28 1013.2 1013.2 0.2
17/09:46am 15.9 9.8 9.8 67 3.2 W 32 48 17 26 1013.2 1013.2 0.2
17/09:30am 15.4 12.2 11.8 79 1.9 WNW 20 30 11 16 1013.0 1013.0 0.0
17/09:00am 13.4 7.1 9.6 78 1.9 WNW 33 48 18 26 1012.9 1012.9 3.4
17/08:30am 15.8 9.9 11.2 74 2.5 W 33 48 18 26 1012.4 1012.4 3.4
17/08:20am 15.7 8.7 8.4 62 3.7 W 35 52 19 28 1012.3 1012.3 3.4
17/08:00am 14.1 8.1 10.9 81 1.7 WNW 33 54 18 29 1011.9 1011.9 3.4
17/07:52am 13.8 7.6 10.2 79 1.9 WNW 33 54 18 29 1012.1 1012.1 3.4
17/07:44am 13.1 4.0 8.6 74 2.2 WNW 46 78 25 42 1012.1 1012.1 3.4
17/07:40am 13.5 4.8 8.6 72 2.5 WNW 44 78 24 42 1012.3 1012.3 3.2
17/07:39am 14.3 5.9 8.9 70 2.7 WNW 43 78 23 42 1012.2 1012.2 3.2
17/07:36am 16.5 9.1 9.9 65 3.5 WNW 39 59 21 32 1011.8 1011.8 3.2
17/07:30am 16.4 9.1 8.6 60 4.0 WNW 37 52 20 28 1011.4 1011.4 3.2
17/07:00am 16.1 9.3 9.3 64 3.5 W 35 52 19 28 1011.1 1011.1 3.2
17/06:30am 15.7 8.1 9.1 65 3.4 WNW 39 56 21 30 1010.8 1010.8 3.2
17/06:00am 16.0 8.4 9.2 64 3.5 WNW 39 50 21 27 1010.4 1010.4 3.2
17/05:30am 16.1 8.4 8.8 62 3.7 W 39 57 21 31 1010.3 1010.3 3.2
17/05:24am 16.1 8.2 9.5 65 3.4 WNW 41 59 22 32 1010.1 1010.1 3.2
17/05:00am 16.1 7.4 8.3 60 4.0 WNW 44 59 24 32 1009.7 1009.7 3.2
17/04:39am 15.9 7.9 9.1 64 3.5 W 41 61 22 33 1009.6 1009.6 3.2
17/04:30am 16.2 7.9 9.2 63 3.6 W 43 61 23 33 1009.6 1009.6 3.2
17/04:00am 15.5 7.8 10.1 70 2.8 WNW 41 59 22 32 1009.3 1009.3 3.0
17/03:33am 16.0 8.4 10.5 70 2.9 W 41 59 22 32 1008.7 1008.7 3.0
17/03:30am 16.0 8.0 10.3 69 3.0 W 43 59 23 32 1008.7 1008.7 3.0
17/03:23am 15.8 8.5 10.3 70 2.9 W 39 59 21 32 1008.7 1008.7 3.0
17/03:00am 15.4 9.9 12.3 82 1.7 WNW 33 50 18 27 1008.5 1008.5 3.0
17/02:41am 14.2 8.8 12.1 87 1.1 WNW 32 52 17 28 1008.8 1008.8 3.0
17/02:30am 13.9 8.2 11.9 88 1.1 WNW 33 46 18 25 1008.8 1008.8 3.0
17/02:13am 15.9 8.2 10.0 68 3.1 WNW 41 69 22 37 1009.3 1009.3 1.4
17/02:00am 16.1 8.9 10.6 70 2.9 WNW 39 54 21 29 1008.9 1008.9 1.4
17/01:43am 16.0 8.6 9.7 66 3.3 WNW 39 57 21 31 1008.9 1008.9 1.4
17/01:30am 15.7 8.6 10.9 73 2.6 WNW 39 52 21 28 1008.7 1008.7 1.4
17/01:00am 16.1 8.5 11.9 76 2.3 W 43 59 23 32 1008.8 1008.8 1.4
17/12:30am 15.2 7.8 10.0 71 2.7 WNW 39 67 21 36 1008.7 1008.7 1.4
17/12:27am 15.6 8.8 11.8 78 2.1 WNW 39 67 21 36 1008.7 1008.7 1.4
17/12:19am 15.1 10.4 12.1 82 1.6 WNW 28 54 15 29 1008.8 1008.8 1.4
17/12:00am 13.5 10.7 12.6 94 0.5 NW 19 30 10 16 1009.0 1009.0 1.4
 
Date/Time
WST
Temp
°C
App
Temp
°C
Dew
Point
°C
Rel
Hum
%
Delta-T
°C
Wind Press
QNH
hPa
Press
MSL
hPa
Rain since
9am
mm
Dir  Spd
km/h
Gust
km/h
Spd
kts
Gust
kts
16/11:30pm 13.4 7.7 11.3 87 1.1 WNW 32 56 17 30 1009.7 1009.7 1.0
16/11:20pm 15.8 10.3 11.8 77 2.2 WNW 32 59 17 32 1009.8 1009.8 0.4
16/11:00pm 14.9 9.8 12.0 83 1.6 WNW 30 43 16 23 1009.6 1009.6 0.4
16/10:36pm 16.6 9.7 10.2 66 3.4 WNW 37 65 20 35 1009.7 1009.7 0.2
16/10:30pm 16.6 10.2 10.7 68 3.1 WNW 35 48 19 26 1009.4 1009.4 0.2
16/10:00pm 14.9 7.9 11.1 78 2.0 WNW 39 65 21 35 1009.4 1009.4 0.2
16/09:30pm 16.4 11.2 10.3 67 3.2 NW 28 46 15 25 1009.5 1009.5 0.2
16/09:00pm 15.1 9.4 11.3 78 2.0 WNW 32 48 17 26 1009.8 1009.8 0.2
16/08:32pm 17.0 11.1 10.4 65 3.5 WNW 32 56 17 30 1009.5 1009.5 0.2
16/08:30pm 16.9 11.8 10.5 66 3.4 WNW 28 39 15 21 1009.5 1009.5 0.2
16/08:00pm 17.0 11.1 10.6 66 3.4 WNW 32 46 17 25 1009.6 1009.6 0.2
16/07:30pm 17.0 10.8 9.2 60 4.0 WNW 32 48 17 26 1009.4 1009.4 0.2
16/07:00pm 17.3 11.8 10.7 65 3.5 WNW 30 43 16 23 1009.1 1009.1 0.2
16/06:30pm 17.2 10.9 9.6 61 4.0 WNW 33 46 18 25 1009.1 1009.1 0.2
16/06:00pm 17.2 10.9 9.6 61 4.0 WNW 33 43 18 23 1009.0 1009.0 0.2
16/05:32pm 17.4 11.9 10.5 64 3.7 WNW 30 48 16 26 1008.7 1008.7 0.2
16/05:30pm 17.4 11.3 9.6 60 4.1 WNW 32 48 17 26 1008.7 1008.7 0.2
16/05:00pm 17.6 11.4 9.2 58 4.4 WNW 32 43 17 23 1008.6 1008.6 0.2
16/04:30pm 18.0 12.3 9.9 59 4.3 WNW 30 44 16 24 1008.4 1008.4 0.2
16/04:00pm 17.9 12.0 10.3 61 4.1 W 32 48 17 26 1008.2 1008.2 0.2
16/03:58pm 18.0 12.5 10.6 62 4.0 WNW 30 48 16 26 1008.2 1008.2 0.2
16/03:30pm 18.6 12.9 11.2 62 4.0 WNW 32 44 17 24 1008.0 1008.0 0.2
16/03:00pm 18.8 14.1 11.9 64 3.8 W 28 39 15 21 1007.7 1007.7 0.2
16/02:30pm 18.9 14.0 12.6 67 3.5 WNW 30 44 16 24 1007.6 1007.6 0.2
16/02:00pm 18.8 13.0 11.4 62 4.1 W 33 46 18 25 1007.3 1007.3 0.2
16/01:30pm 19.1 14.9 13.5 70 3.2 W 28 39 15 21 1007.2 1007.2 0.2
16/01:00pm 18.1 12.5 12.1 68 3.3 W 33 46 18 25 1007.3 1007.3 0.2
16/12:30pm 17.8 13.7 13.7 77 2.3 W 28 41 15 22 1007.3 1007.3 0.2
16/12:00pm 16.9 12.6 14.5 86 1.4 W 30 39 16 21 1007.6 1007.6 0.2
16/11:30am 16.3 11.5 14.5 89 1.0 W 33 43 18 23 1007.7 1007.7 0.2
16/11:05am 17.3 13.2 14.9 86 1.4 W 30 48 16 26 1007.5 1007.5 0.0
16/11:00am 17.4 13.8 14.3 82 1.8 W 26 41 14 22 1007.6 1007.6 0.0
16/10:30am 16.7 13.8 15.1 90 0.9 W 24 39 13 21 1007.6 1007.6 0.0
16/10:00am 16.7 14.3 16.5 99 0.1 WSW 24 35 13 19 1007.4 1007.4 0.0
16/09:30am 16.6 12.7 16.4 99 0.1 W 32 43 17 23 1007.2 1007.2 0.0
16/09:00am 16.9 13.1 16.7 99 0.1 W 32 44 17 24 1006.9 1006.9 34.2
16/08:30am 16.7 14.4 16.7 100 0.0 WNW 24 37 13 20 1006.5 1006.5 34.0
16/08:00am 17.1 14.5 16.9 99 0.1 NW 26 39 14 21 1005.5 1005.5 29.2
16/07:30am 17.7 16.1 17.4 98 0.2 WNW 22 32 12 17 1005.2 1005.2 27.8

Other formats

Comma delimited format used in spreadsheet applications
http://www.bom.gov.au/fwo/IDW60801/IDW60801.95609.axf

JavaScript Object Notation format (JSON) in row-major order
http://www.bom.gov.au/fwo/IDW60801/IDW60801.95609.json

Data quality

Most of these data are generated automatically and are frequently updated. Quality checks on data are not normally performed. It is possible for incorrect values to appear. Refer to information at About Latest Weather Observations and please check the disclaimer before using these data.